createdAt,value
2023-01-30T00:02:43.774Z,3.30
2023-01-30T00:05:29.487Z,3.20
2023-01-30T00:08:14.994Z,3.40
2023-01-30T00:11:06.832Z,3.40
2023-01-30T00:13:52.669Z,3.40
2023-01-30T00:16:38.696Z,3.60
2023-01-30T00:19:24.215Z,3.50
2023-01-30T00:22:09.997Z,3.20
2023-01-30T00:24:56.209Z,3.20
2023-01-30T00:27:42.219Z,4.40
2023-01-30T00:30:28.355Z,3.20
2023-01-30T00:33:17.792Z,3.30
2023-01-30T00:36:05.671Z,3.70
2023-01-30T00:38:53.976Z,3.30
2023-01-30T00:41:58.365Z,3.80
2023-01-30T00:45:02.280Z,3.50
2023-01-30T00:47:49.734Z,3.30
2023-01-30T00:50:44.614Z,3.70
2023-01-30T00:53:33.536Z,3.30
2023-01-30T00:56:19.187Z,3.30
2023-01-30T00:59:05.076Z,3.60
2023-01-30T01:01:51.516Z,3.20
2023-01-30T01:04:43.615Z,3.20
2023-01-30T01:07:30.226Z,3.10
2023-01-30T01:10:16.843Z,3.90
2023-01-30T01:13:03.430Z,3.10
2023-01-30T01:15:50.541Z,3.10
2023-01-30T01:18:37.149Z,3.20
2023-01-30T01:21:23.817Z,3.10
2023-01-30T01:24:15.393Z,3.00
2023-01-30T01:27:02.084Z,3.10
2023-01-30T01:29:47.880Z,3.10
2023-01-30T01:32:35.255Z,3.60
2023-01-30T01:35:21.151Z,3.10
2023-01-30T01:38:06.971Z,3.00
2023-01-30T01:41:10.085Z,2.90
2023-01-30T01:44:13.450Z,3.70
2023-01-30T01:47:00.361Z,3.00
2023-01-30T01:49:45.977Z,3.00
2023-01-30T01:52:34.002Z,4.30
2023-01-30T01:55:23.766Z,3.30
2023-01-30T01:58:13.820Z,2.90
2023-01-30T02:01:00.319Z,3.00
2023-01-30T02:03:52.321Z,3.60
2023-01-30T02:06:42.088Z,3.10
2023-01-30T02:09:28.278Z,3.00
2023-01-30T02:12:16.818Z,3.00
2023-01-30T02:15:04.322Z,3.60
2023-01-30T02:17:51.056Z,4.40
2023-01-30T02:20:55.523Z,3.00
2023-01-30T02:24:35.284Z,3.00
2023-01-30T02:27:33.280Z,3.00
2023-01-30T02:30:22.349Z,3.00
2023-01-30T02:33:19.897Z,3.00
2023-01-30T02:36:12.304Z,2.80
2023-01-30T02:39:13.071Z,2.60
2023-01-30T02:42:09.285Z,2.60
2023-01-30T02:45:24.093Z,2.50
2023-01-30T02:48:15.024Z,2.60
2023-01-30T02:51:10.033Z,2.70
2023-01-30T02:53:56.496Z,2.60
2023-01-30T02:56:54.789Z,3.00
2023-01-30T02:59:46.421Z,3.40
2023-01-30T03:03:07.001Z,2.60
2023-01-30T03:06:06.085Z,2.60
2023-01-30T03:09:10.900Z,2.70
2023-01-30T03:12:24.467Z,2.70
2023-01-30T03:15:35.411Z,2.60
2023-01-30T03:18:21.589Z,2.60
2023-01-30T03:21:07.364Z,2.60
2023-01-30T03:23:52.902Z,4.20
2023-01-30T03:27:01.169Z,2.70
2023-01-30T03:29:46.931Z,2.70
2023-01-30T03:32:32.773Z,3.10
2023-01-30T03:35:18.872Z,2.80
2023-01-30T03:38:05.207Z,2.70
2023-01-30T03:40:51.258Z,2.60
2023-01-30T03:43:36.823Z,2.80
2023-01-30T03:46:24.522Z,2.70
2023-01-30T03:49:11.417Z,2.70
2023-01-30T03:51:59.501Z,2.60
2023-01-30T03:54:45.674Z,2.60
2023-01-30T03:57:32.083Z,2.50
2023-01-30T04:00:18.801Z,2.50
2023-01-30T04:03:07.773Z,2.50
2023-01-30T04:05:53.655Z,2.60
2023-01-30T04:08:39.240Z,2.80
2023-01-30T04:11:27.444Z,2.60
2023-01-30T04:14:13.425Z,2.60
2023-01-30T04:17:21.397Z,4.10
2023-01-30T04:20:27.645Z,2.60
2023-01-30T04:23:16.538Z,2.90
2023-01-30T04:26:03.716Z,2.60
2023-01-30T04:28:50.595Z,2.60
2023-01-30T04:31:37.335Z,2.50
2023-01-30T04:34:45.217Z,2.50
2023-01-30T04:37:30.965Z,2.60
2023-01-30T04:40:16.855Z,2.60
2023-01-30T04:43:03.227Z,2.80
2023-01-30T04:46:09.054Z,2.50
2023-01-30T04:48:54.463Z,2.10
2023-01-30T04:51:40.092Z,2.30
2023-01-30T04:54:25.857Z,2.40
2023-01-30T04:57:12.148Z,2.50
2023-01-30T04:59:57.914Z,2.50
2023-01-30T05:02:43.811Z,2.40
2023-01-30T05:05:29.788Z,2.40
2023-01-30T05:08:17.125Z,2.30
2023-01-30T05:11:02.839Z,2.40
2023-01-30T05:13:48.771Z,3.50
2023-01-30T05:16:34.583Z,2.80
2023-01-30T05:19:23.342Z,3.10
2023-01-30T05:22:09.405Z,2.70
2023-01-30T05:24:55.365Z,2.60
2023-01-30T05:27:40.807Z,2.90
2023-01-30T05:30:26.505Z,2.50
2023-01-30T05:33:12.276Z,3.00
2023-01-30T05:35:58.101Z,2.40
2023-01-30T05:38:45.290Z,2.50
2023-01-30T05:41:30.927Z,2.40
2023-01-30T05:44:16.768Z,2.40
2023-01-30T05:47:02.527Z,2.40
2023-01-30T05:49:47.895Z,2.40
2023-01-30T05:52:33.514Z,3.10
2023-01-30T05:55:19.737Z,2.60
2023-01-30T05:58:06.193Z,2.40
2023-01-30T06:00:52.453Z,2.50
2023-01-30T06:03:38.695Z,2.40
2023-01-30T06:10:23.427Z,2.40
2023-01-30T06:13:11.259Z,2.40
2023-01-30T06:15:57.519Z,2.30
2023-01-30T06:18:44.209Z,2.20
2023-01-30T06:21:30.765Z,2.30
2023-01-30T06:24:16.637Z,3.10
2023-01-30T06:27:04.087Z,2.30
2023-01-30T06:29:50.204Z,2.40
2023-01-30T06:32:36.209Z,2.20
2023-01-30T06:35:22.303Z,2.20
2023-01-30T06:38:14.069Z,2.30
2023-01-30T06:41:00.647Z,2.40
2023-01-30T06:43:54.245Z,2.20
2023-01-30T06:46:40.917Z,2.00
2023-01-30T06:49:26.954Z,2.00
2023-01-30T06:52:12.739Z,2.10
2023-01-30T06:54:58.719Z,2.30
2023-01-30T06:57:45.137Z,2.20
2023-01-30T07:00:31.309Z,2.20
2023-01-30T07:03:19.038Z,2.40
2023-01-30T07:06:05.413Z,2.50
2023-01-30T07:08:51.450Z,2.60
2023-01-30T07:11:38.160Z,2.60
2023-01-30T07:14:24.524Z,2.90
2023-01-30T07:17:10.784Z,3.60
2023-01-30T07:19:56.952Z,4.60
2023-01-30T07:22:49.274Z,4.90
2023-01-30T07:25:36.200Z,5.30
2023-01-30T07:28:22.950Z,5.80
2023-01-30T07:31:09.163Z,6.40
2023-01-30T07:33:55.924Z,6.70
2023-01-30T07:36:42.294Z,6.50
2023-01-30T07:39:30.319Z,6.80
2023-01-30T07:42:16.744Z,6.80
2023-01-30T07:45:02.786Z,6.80
2023-01-30T07:47:48.830Z,7.50
2023-01-30T07:50:36.607Z,8.00
2023-01-30T07:53:22.665Z,8.60
2023-01-30T07:56:18.862Z,9.00
2023-01-30T07:59:05.935Z,9.10
2023-01-30T08:01:53.175Z,9.10
2023-01-30T08:04:39.071Z,10.20
2023-01-30T08:07:25.432Z,10.70
2023-01-30T08:10:12.641Z,8.20
2023-01-30T08:12:58.868Z,8.50
2023-01-30T08:15:45.167Z,8.30
2023-01-30T08:18:33.132Z,9.40
2023-01-30T08:21:19.314Z,10.90
2023-01-30T08:24:06.125Z,10.40
2023-01-30T08:26:52.119Z,11.30
2023-01-30T08:29:38.346Z,10.90
2023-01-30T08:32:25.291Z,10.50
2023-01-30T08:35:12.503Z,8.10
2023-01-30T08:37:59.644Z,6.70
2023-01-30T08:40:46.307Z,5.90
2023-01-30T08:43:35.015Z,5.70
2023-01-30T08:46:22.786Z,5.50
2023-01-30T08:49:09.436Z,6.00
2023-01-30T08:52:00.694Z,6.50
2023-01-30T08:54:47.563Z,7.90
2023-01-30T08:57:38.518Z,8.40
2023-01-30T09:00:25.285Z,7.80
2023-01-30T09:03:13.861Z,8.10
2023-01-30T09:06:03.651Z,8.60
2023-01-30T09:08:52.405Z,8.30
2023-01-30T09:11:41.674Z,6.50
2023-01-30T09:14:30.586Z,5.10
2023-01-30T09:17:16.438Z,4.30
2023-01-30T09:20:02.496Z,4.80
2023-01-30T09:22:49.806Z,5.10
2023-01-30T09:25:36.012Z,5.10
2023-01-30T09:28:23.387Z,5.40
2023-01-30T09:31:10.073Z,5.40
2023-01-30T09:33:58.824Z,5.60
2023-01-30T09:36:45.054Z,5.60
2023-01-30T09:39:31.810Z,6.00
2023-01-30T09:42:44.105Z,7.30
2023-01-30T09:45:55.934Z,9.10
2023-01-30T09:49:18.623Z,11.00
2023-01-30T09:52:20.272Z,14.10
2023-01-30T09:55:34.326Z,15.20
2023-01-30T09:58:23.170Z,15.20
2023-01-30T10:01:24.323Z,14.90
2023-01-30T10:04:20.580Z,12.60
2023-01-30T10:07:23.279Z,11.00
2023-01-30T10:10:17.150Z,11.10
2023-01-30T10:13:41.809Z,11.20
2023-01-30T10:16:48.155Z,10.90
2023-01-30T10:20:07.040Z,9.60
2023-01-30T10:23:02.502Z,8.90
2023-01-30T10:25:55.549Z,7.90
2023-01-30T10:28:58.861Z,7.60
2023-01-30T10:32:13.688Z,7.10
2023-01-30T10:35:14.037Z,7.50
2023-01-30T10:38:15.424Z,7.70
2023-01-30T10:41:31.713Z,7.10
2023-01-30T10:44:19.140Z,7.00
2023-01-30T10:47:17.706Z,6.60
2023-01-30T10:50:40.830Z,6.60
2023-01-30T10:53:47.075Z,7.00
2023-01-30T10:56:56.487Z,7.30
2023-01-30T10:59:50.346Z,7.60
2023-01-30T11:03:00.395Z,7.60
2023-01-30T11:05:50.064Z,7.30
2023-01-30T11:08:37.062Z,7.40
2023-01-30T11:11:55.878Z,7.40
2023-01-30T11:14:59.084Z,7.00
2023-01-30T11:17:46.035Z,6.80
2023-01-30T11:20:46.187Z,7.10
2023-01-30T11:23:43.269Z,7.20
2023-01-30T11:26:46.709Z,7.10
2023-01-30T11:29:35.483Z,7.20
2023-01-30T11:32:29.767Z,6.90
2023-01-30T11:35:16.505Z,7.00
2023-01-30T11:38:21.286Z,6.90
2023-01-30T11:41:10.593Z,7.30
2023-01-30T11:44:04.459Z,7.80
2023-01-30T11:46:50.513Z,8.00
2023-01-30T11:49:46.372Z,7.90
2023-01-30T11:52:38.077Z,8.00
2023-01-30T11:55:25.059Z,8.00
2023-01-30T11:58:11.053Z,7.90
2023-01-30T12:00:59.272Z,7.80
2023-01-30T12:03:49.016Z,7.80
2023-01-30T12:06:39.013Z,7.90
2023-01-30T12:09:35.411Z,8.00
2023-01-30T12:12:34.997Z,8.20
2023-01-30T12:15:28.424Z,8.20
2023-01-30T12:18:18.710Z,8.30
2023-01-30T12:21:49.551Z,8.20
2023-01-30T12:24:48.811Z,8.20
2023-01-30T12:28:12.624Z,8.30
2023-01-30T12:31:26.121Z,8.20
2023-01-30T12:34:12.645Z,8.10
2023-01-30T12:37:20.755Z,8.30
2023-01-30T12:40:25.267Z,8.60
2023-01-30T12:43:14.518Z,8.40
2023-01-30T12:46:04.043Z,8.40
2023-01-30T12:49:25.540Z,8.20
2023-01-30T12:52:50.236Z,8.20
2023-01-30T12:55:44.961Z,8.10
2023-01-30T12:59:03.213Z,8.20
2023-01-30T13:02:20.480Z,8.60
2023-01-30T13:05:41.855Z,8.70
2023-01-30T13:09:13.338Z,8.30
2023-01-30T13:12:05.700Z,8.30
2023-01-30T13:15:08.816Z,8.40
2023-01-30T13:18:23.117Z,8.50
2023-01-30T13:21:23.635Z,8.80
2023-01-30T13:24:21.802Z,8.70
2023-01-30T13:27:12.726Z,8.80
2023-01-30T13:30:02.304Z,8.80
2023-01-30T13:33:14.238Z,8.90
2023-01-30T13:36:41.681Z,8.80
2023-01-30T13:39:43.181Z,8.80
2023-01-30T13:42:51.828Z,8.70
2023-01-30T13:45:42.743Z,8.70
2023-01-30T13:48:41.478Z,8.60
2023-01-30T13:51:50.163Z,8.60
2023-01-30T13:54:47.953Z,8.80
2023-01-30T13:57:40.013Z,8.90
2023-01-30T14:00:33.676Z,9.10
2023-01-30T14:03:33.375Z,8.90
2023-01-30T14:06:34.729Z,8.50
2023-01-30T14:09:29.724Z,8.70
2023-01-30T14:12:28.447Z,8.70
2023-01-30T14:15:18.866Z,8.90
2023-01-30T14:18:22.896Z,8.90
2023-01-30T14:21:24.614Z,8.40
2023-01-30T14:24:25.143Z,9.00
2023-01-30T14:27:27.582Z,9.00
2023-01-30T14:30:47.686Z,8.90
2023-01-30T14:33:50.395Z,8.60
2023-01-30T14:36:38.009Z,8.40
2023-01-30T14:39:41.483Z,8.60
2023-01-30T14:42:30.943Z,8.90
2023-01-30T14:45:17.715Z,8.80
2023-01-30T14:48:34.855Z,9.10
2023-01-30T14:51:40.324Z,9.10
2023-01-30T14:54:41.776Z,9.00
2023-01-30T14:57:32.899Z,10.20
2023-01-30T15:00:24.621Z,8.30
2023-01-30T15:03:20.515Z,9.10
2023-01-30T15:06:07.645Z,9.30
2023-01-30T15:08:54.064Z,9.50
2023-01-30T15:11:45.302Z,9.20
2023-01-30T15:14:48.500Z,9.20
2023-01-30T15:18:01.983Z,9.30
2023-01-30T15:21:11.602Z,9.30
2023-01-30T15:24:13.113Z,9.10
2023-01-30T15:27:17.024Z,9.10
2023-01-30T15:30:18.072Z,8.90
2023-01-30T15:33:30.001Z,9.10
2023-01-30T15:36:23.801Z,9.00
2023-01-30T15:39:23.874Z,8.30
2023-01-30T15:42:17.304Z,8.60
2023-01-30T15:45:29.241Z,8.50
2023-01-30T15:49:00.627Z,8.40
2023-01-30T15:51:46.974Z,8.40
2023-01-30T15:54:33.305Z,8.30
2023-01-30T15:57:37.439Z,8.20
2023-01-30T16:00:36.756Z,8.30
2023-01-30T16:03:24.947Z,8.40
2023-01-30T16:06:40.347Z,8.40
2023-01-30T16:09:26.955Z,8.30
2023-01-30T16:12:31.144Z,8.40
2023-01-30T16:15:46.102Z,8.40
2023-01-30T16:18:43.699Z,8.30
2023-01-30T16:21:35.453Z,8.00
2023-01-30T16:24:26.345Z,8.10
2023-01-30T16:27:33.466Z,8.00
2023-01-30T16:30:22.696Z,7.90
2023-01-30T16:33:11.444Z,7.70
2023-01-30T16:35:57.514Z,7.80
2023-01-30T16:38:47.928Z,8.10
2023-01-30T16:41:39.802Z,8.00
2023-01-30T16:44:28.874Z,8.00
2023-01-30T16:47:26.940Z,7.70
2023-01-30T16:50:22.844Z,7.70
2023-01-30T16:53:18.638Z,7.50
2023-01-30T16:56:17.264Z,7.50
2023-01-30T16:59:04.222Z,7.80
2023-01-30T17:01:54.050Z,7.60
2023-01-30T17:04:42.115Z,7.80
2023-01-30T17:07:35.118Z,7.40
2023-01-30T17:10:40.547Z,7.70
2023-01-30T17:13:36.609Z,7.90
2023-01-30T17:16:22.765Z,7.80
2023-01-30T17:19:11.616Z,7.60
2023-01-30T17:22:00.770Z,7.60
2023-01-30T17:24:47.517Z,7.60
2023-01-30T17:27:34.667Z,7.60
2023-01-30T17:30:21.494Z,7.70
2023-01-30T17:33:07.897Z,7.50
2023-01-30T17:36:05.991Z,7.30
2023-01-30T17:38:52.642Z,7.50
2023-01-30T17:41:40.095Z,7.40
2023-01-30T17:44:26.303Z,7.40
2023-01-30T17:47:13.147Z,7.20
2023-01-30T17:49:58.948Z,7.20
2023-01-30T17:52:45.281Z,7.00
2023-01-30T17:55:32.533Z,6.80
2023-01-30T17:58:19.327Z,7.00
2023-01-30T18:01:05.353Z,6.90
2023-01-30T18:03:51.622Z,6.80
2023-01-30T18:06:39.505Z,6.80
2023-01-30T18:09:27.106Z,6.90
2023-01-30T18:12:13.699Z,7.00
2023-01-30T18:14:59.921Z,6.90
2023-01-30T18:17:48.535Z,6.70
2023-01-30T18:20:34.715Z,7.00
2023-01-30T18:23:20.678Z,7.00
2023-01-30T18:26:06.693Z,7.00
2023-01-30T18:28:53.407Z,6.70
2023-01-30T18:31:41.356Z,6.20
2023-01-30T18:34:27.501Z,6.40
2023-01-30T18:37:13.992Z,6.70
2023-01-30T18:39:59.981Z,6.60
2023-01-30T18:42:45.886Z,6.40
2023-01-30T18:45:32.205Z,6.10
2023-01-30T18:48:18.021Z,5.80
2023-01-30T18:51:25.636Z,5.80
2023-01-30T18:54:11.473Z,5.50
2023-01-30T18:56:57.706Z,5.40
2023-01-30T18:59:44.171Z,5.20
2023-01-30T19:02:30.292Z,5.40
2023-01-30T19:05:16.604Z,5.40
2023-01-30T19:08:02.614Z,5.30
2023-01-30T19:10:48.547Z,5.30
2023-01-30T19:13:34.788Z,5.40
2023-01-30T19:16:22.089Z,5.10
2023-01-30T19:19:09.614Z,5.10
2023-01-30T19:21:55.761Z,5.40
2023-01-30T19:24:41.761Z,5.20
2023-01-30T19:27:27.706Z,5.40
2023-01-30T19:30:13.881Z,5.60
2023-01-30T19:33:00.579Z,5.20
2023-01-30T19:35:47.127Z,5.00
2023-01-30T19:38:34.197Z,5.20
2023-01-30T19:41:26.670Z,5.30
2023-01-30T19:44:13.076Z,5.50
2023-01-30T19:46:59.194Z,6.80
2023-01-30T19:49:45.418Z,5.30
2023-01-30T19:52:31.697Z,5.50
2023-01-30T19:59:38.710Z,4.90
2023-01-30T20:02:24.597Z,4.80
2023-01-30T20:05:11.200Z,5.20
2023-01-30T20:07:57.327Z,5.30
2023-01-30T20:10:43.527Z,5.20
2023-01-30T20:13:30.250Z,5.40
2023-01-30T20:16:20.691Z,5.60
2023-01-30T20:19:16.130Z,5.60
2023-01-30T20:22:08.241Z,5.50
2023-01-30T20:24:54.221Z,5.60
2023-01-30T20:27:40.188Z,5.50
2023-01-30T20:30:26.035Z,5.50
2023-01-30T20:33:12.660Z,5.60
2023-01-30T20:36:03.546Z,5.80
2023-01-30T20:38:51.392Z,5.80
2023-01-30T20:41:38.039Z,5.80
2023-01-30T20:44:24.635Z,5.60
2023-01-30T20:47:10.972Z,5.50
2023-01-30T20:49:57.911Z,5.40
2023-01-30T20:52:44.013Z,5.30
2023-01-30T20:55:30.653Z,5.50
2023-01-30T20:58:17.087Z,5.40
2023-01-30T21:01:18.308Z,5.60
2023-01-30T21:04:11.021Z,5.60
2023-01-30T21:06:57.276Z,5.60
2023-01-30T21:09:43.371Z,5.60
2023-01-30T21:12:30.578Z,5.50
2023-01-30T21:15:17.292Z,5.90
2023-01-30T21:18:04.007Z,5.60
2023-01-30T21:20:50.574Z,5.50
2023-01-30T21:23:37.023Z,6.10
2023-01-30T21:26:25.536Z,5.30
2023-01-30T21:29:13.402Z,5.40
2023-01-30T21:31:59.889Z,5.30
2023-01-30T21:34:46.914Z,5.10
2023-01-30T21:37:51.268Z,4.70
2023-01-30T21:40:56.112Z,4.60
2023-01-30T21:43:42.569Z,4.80
2023-01-30T21:46:31.421Z,4.70
2023-01-30T21:49:19.168Z,4.80
2023-01-30T21:52:06.003Z,4.90
2023-01-30T21:54:53.375Z,4.70
2023-01-30T21:57:40.504Z,4.90
2023-01-30T22:00:26.932Z,4.90
2023-01-30T22:03:13.777Z,4.90
2023-01-30T22:05:59.952Z,5.00
2023-01-30T22:08:46.737Z,4.90
2023-01-30T22:11:36.457Z,5.20
2023-01-30T22:14:23.490Z,5.00
2023-01-30T22:17:09.537Z,4.80
2023-01-30T22:19:55.947Z,4.60
2023-01-30T22:22:42.292Z,4.80
2023-01-30T22:25:28.996Z,5.00
2023-01-30T22:28:15.546Z,4.20
2023-01-30T22:31:13.351Z,5.30
2023-01-30T22:34:00.610Z,5.30
2023-01-30T22:36:47.985Z,5.10
2023-01-30T22:39:34.234Z,5.00
2023-01-30T22:42:20.942Z,4.90
2023-01-30T22:45:08.271Z,4.90
2023-01-30T22:47:54.423Z,5.00
2023-01-30T22:50:41.519Z,4.80
2023-01-30T22:53:31.115Z,4.70
2023-01-30T22:56:20.065Z,4.30
2023-01-30T22:59:07.418Z,4.50
2023-01-30T23:01:53.905Z,4.30
2023-01-30T23:04:40.181Z,3.90
2023-01-30T23:07:26.691Z,4.20
2023-01-30T23:10:12.876Z,4.10
2023-01-30T23:13:09.045Z,4.30
2023-01-30T23:16:01.234Z,4.50
2023-01-30T23:18:59.129Z,4.60
2023-01-30T23:21:46.908Z,4.20
2023-01-30T23:24:33.283Z,3.80
2023-01-30T23:27:21.146Z,4.00
2023-01-30T23:30:08.366Z,4.30
2023-01-30T23:32:54.306Z,4.60
2023-01-30T23:35:40.651Z,4.20
2023-01-30T23:38:26.928Z,4.50
2023-01-30T23:41:18.707Z,4.60
2023-01-30T23:44:05.574Z,4.70
2023-01-30T23:46:51.856Z,4.70
2023-01-30T23:49:38.039Z,4.90
2023-01-30T23:52:24.465Z,5.10
2023-01-30T23:55:11.052Z,5.00
2023-01-30T23:57:56.852Z,5.00
